sensor_id;sensor_type;location;lat;lon;timestamp;P1;durP1;ratioP1;P2;durP2;ratioP2
54261;SDS011;40174;52.364;6.452;2023-04-24T00:01:21;1.73;;;0.65;;
54261;SDS011;40174;52.364;6.452;2023-04-24T00:03:48;1.17;;;0.70;;
54261;SDS011;40174;52.364;6.452;2023-04-24T00:06:15;1.05;;;0.68;;
54261;SDS011;40174;52.364;6.452;2023-04-24T00:08:42;2.05;;;0.90;;
54261;SDS011;40174;52.364;6.452;2023-04-24T00:11:09;2.33;;;1.02;;
54261;SDS011;40174;52.364;6.452;2023-04-24T00:13:37;2.10;;;0.98;;
54261;SDS011;40174;52.364;6.452;2023-04-24T00:16:04;2.22;;;1.08;;
54261;SDS011;40174;52.364;6.452;2023-04-24T00:18:31;1.27;;;0.90;;
54261;SDS011;40174;52.364;6.452;2023-04-24T00:20:58;2.28;;;1.10;;
54261;SDS011;40174;52.364;6.452;2023-04-24T00:23:24;2.28;;;1.00;;
54261;SDS011;40174;52.364;6.452;2023-04-24T00:25:51;4.95;;;1.20;;
54261;SDS011;40174;52.364;6.452;2023-04-24T00:28:18;3.15;;;1.35;;
54261;SDS011;40174;52.364;6.452;2023-04-24T00:30:46;2.50;;;1.30;;
54261;SDS011;40174;52.364;6.452;2023-04-24T00:33:12;3.38;;;1.55;;
54261;SDS011;40174;52.364;6.452;2023-04-24T00:35:39;2.92;;;1.60;;
54261;SDS011;40174;52.364;6.452;2023-04-24T00:38:06;3.92;;;1.90;;
54261;SDS011;40174;52.364;6.452;2023-04-24T00:40:33;3.53;;;1.80;;
54261;SDS011;40174;52.364;6.452;2023-04-24T00:42:59;7.20;;;2.20;;
54261;SDS011;40174;52.364;6.452;2023-04-24T00:45:26;4.40;;;2.25;;
54261;SDS011;40174;52.364;6.452;2023-04-24T00:47:54;4.45;;;2.13;;
54261;SDS011;40174;52.364;6.452;2023-04-24T00:50:21;6.00;;;2.60;;
54261;SDS011;40174;52.364;6.452;2023-04-24T00:52:49;5.55;;;2.40;;
54261;SDS011;40174;52.364;6.452;2023-04-24T00:55:16;8.73;;;3.35;;
54261;SDS011;40174;52.364;6.452;2023-04-24T00:57:43;4.47;;;2.40;;
54261;SDS011;40174;52.364;6.452;2023-04-24T01:00:10;5.80;;;2.60;;
54261;SDS011;40174;52.364;6.452;2023-04-24T01:02:41;7.05;;;2.70;;
54261;SDS011;40174;52.364;6.452;2023-04-24T01:05:11;6.35;;;2.33;;
54261;SDS011;40174;52.364;6.452;2023-04-24T01:07:40;5.68;;;2.50;;
54261;SDS011;40174;52.364;6.452;2023-04-24T01:10:11;6.13;;;2.60;;
54261;SDS011;40174;52.364;6.452;2023-04-24T01:12:38;5.88;;;2.55;;
54261;SDS011;40174;52.364;6.452;2023-04-24T01:15:06;5.95;;;2.60;;
54261;SDS011;40174;52.364;6.452;2023-04-24T01:17:34;4.68;;;2.47;;
54261;SDS011;40174;52.364;6.452;2023-04-24T01:20:01;5.78;;;2.50;;
54261;SDS011;40174;52.364;6.452;2023-04-24T01:22:32;5.82;;;2.50;;
54261;SDS011;40174;52.364;6.452;2023-04-24T01:24:59;6.50;;;2.65;;
54261;SDS011;40174;52.364;6.452;2023-04-24T01:27:29;4.05;;;2.20;;
54261;SDS011;40174;52.364;6.452;2023-04-24T01:29:56;7.80;;;2.78;;
54261;SDS011;40174;52.364;6.452;2023-04-24T01:32:22;6.32;;;2.50;;
54261;SDS011;40174;52.364;6.452;2023-04-24T01:34:50;5.13;;;2.30;;
54261;SDS011;40174;52.364;6.452;2023-04-24T01:37:17;6.38;;;2.72;;
54261;SDS011;40174;52.364;6.452;2023-04-24T01:39:45;4.53;;;1.92;;
54261;SDS011;40174;52.364;6.452;2023-04-24T01:42:12;6.70;;;2.15;;
54261;SDS011;40174;52.364;6.452;2023-04-24T01:44:39;4.85;;;2.10;;
54261;SDS011;40174;52.364;6.452;2023-04-24T01:47:06;4.68;;;1.95;;
54261;SDS011;40174;52.364;6.452;2023-04-24T01:49:33;4.97;;;2.03;;
54261;SDS011;40174;52.364;6.452;2023-04-24T01:52:00;6.47;;;2.42;;
54261;SDS011;40174;52.364;6.452;2023-04-24T01:54:29;3.60;;;1.85;;
54261;SDS011;40174;52.364;6.452;2023-04-24T01:56:57;5.03;;;2.08;;
54261;SDS011;40174;52.364;6.452;2023-04-24T01:59:26;4.72;;;1.83;;
54261;SDS011;40174;52.364;6.452;2023-04-24T02:01:57;6.20;;;1.92;;
54261;SDS011;40174;52.364;6.452;2023-04-24T02:04:23;3.78;;;1.58;;
54261;SDS011;40174;52.364;6.452;2023-04-24T02:06:50;4.22;;;1.90;;
54261;SDS011;40174;52.364;6.452;2023-04-24T02:09:17;2.95;;;1.60;;
54261;SDS011;40174;52.364;6.452;2023-04-24T02:11:44;5.10;;;1.92;;
54261;SDS011;40174;52.364;6.452;2023-04-24T02:14:11;3.13;;;1.60;;
54261;SDS011;40174;52.364;6.452;2023-04-24T02:16:39;3.58;;;1.75;;
54261;SDS011;40174;52.364;6.452;2023-04-24T02:19:06;3.70;;;1.75;;
54261;SDS011;40174;52.364;6.452;2023-04-24T02:21:32;2.80;;;1.63;;
54261;SDS011;40174;52.364;6.452;2023-04-24T02:24:00;4.03;;;1.77;;
54261;SDS011;40174;52.364;6.452;2023-04-24T02:26:27;4.78;;;2.03;;
54261;SDS011;40174;52.364;6.452;2023-04-24T02:28:53;4.57;;;1.70;;
54261;SDS011;40174;52.364;6.452;2023-04-24T02:31:21;3.92;;;2.10;;
54261;SDS011;40174;52.364;6.452;2023-04-24T02:33:48;4.15;;;1.80;;
54261;SDS011;40174;52.364;6.452;2023-04-24T02:36:15;3.30;;;1.50;;
54261;SDS011;40174;52.364;6.452;2023-04-24T02:38:41;3.03;;;1.45;;
54261;SDS011;40174;52.364;6.452;2023-04-24T02:41:08;3.10;;;1.50;;
54261;SDS011;40174;52.364;6.452;2023-04-24T02:43:34;5.70;;;1.92;;
54261;SDS011;40174;52.364;6.452;2023-04-24T02:46:01;3.47;;;1.92;;
54261;SDS011;40174;52.364;6.452;2023-04-24T02:48:29;3.67;;;1.73;;
54261;SDS011;40174;52.364;6.452;2023-04-24T02:50:56;4.07;;;1.73;;
54261;SDS011;40174;52.364;6.452;2023-04-24T02:53:23;4.28;;;1.95;;
54261;SDS011;40174;52.364;6.452;2023-04-24T02:55:50;4.13;;;1.92;;
54261;SDS011;40174;52.364;6.452;2023-04-24T02:58:17;2.97;;;1.70;;
54261;SDS011;40174;52.364;6.452;2023-04-24T03:00:45;3.45;;;1.75;;
54261;SDS011;40174;52.364;6.452;2023-04-24T03:03:11;3.83;;;1.80;;
54261;SDS011;40174;52.364;6.452;2023-04-24T03:05:39;4.28;;;1.80;;
54261;SDS011;40174;52.364;6.452;2023-04-24T03:08:06;4.70;;;2.10;;
54261;SDS011;40174;52.364;6.452;2023-04-24T03:10:32;7.30;;;2.13;;
54261;SDS011;40174;52.364;6.452;2023-04-24T03:12:59;5.53;;;2.70;;
54261;SDS011;40174;52.364;6.452;2023-04-24T03:15:26;3.70;;;1.95;;
54261;SDS011;40174;52.364;6.452;2023-04-24T03:17:53;6.20;;;2.17;;
54261;SDS011;40174;52.364;6.452;2023-04-24T03:20:20;5.07;;;2.38;;
54261;SDS011;40174;52.364;6.452;2023-04-24T03:22:48;7.45;;;2.55;;
54261;SDS011;40174;52.364;6.452;2023-04-24T03:25:15;4.63;;;2.10;;
54261;SDS011;40174;52.364;6.452;2023-04-24T03:27:42;5.45;;;2.35;;
54261;SDS011;40174;52.364;6.452;2023-04-24T03:30:35;6.57;;;2.33;;
54261;SDS011;40174;52.364;6.452;2023-04-24T03:33:03;7.47;;;2.30;;
54261;SDS011;40174;52.364;6.452;2023-04-24T03:35:33;6.00;;;2.55;;
54261;SDS011;40174;52.364;6.452;2023-04-24T03:38:04;4.60;;;2.13;;
54261;SDS011;40174;52.364;6.452;2023-04-24T03:40:40;4.75;;;2.15;;
54261;SDS011;40174;52.364;6.452;2023-04-24T03:43:21;5.18;;;2.53;;
54261;SDS011;40174;52.364;6.452;2023-04-24T03:45:48;4.30;;;2.00;;
54261;SDS011;40174;52.364;6.452;2023-04-24T03:48:16;5.80;;;2.40;;
54261;SDS011;40174;52.364;6.452;2023-04-24T03:50:43;4.55;;;2.03;;
54261;SDS011;40174;52.364;6.452;2023-04-24T03:53:12;4.47;;;2.08;;
54261;SDS011;40174;52.364;6.452;2023-04-24T03:55:40;5.28;;;2.38;;
54261;SDS011;40174;52.364;6.452;2023-04-24T03:58:08;3.28;;;1.60;;
54261;SDS011;40174;52.364;6.452;2023-04-24T04:00:35;5.32;;;2.08;;
54261;SDS011;40174;52.364;6.452;2023-04-24T04:05:48;5.45;;;1.92;;
54261;SDS011;40174;52.364;6.452;2023-04-24T04:08:16;3.83;;;1.88;;
54261;SDS011;40174;52.364;6.452;2023-04-24T04:10:43;3.75;;;1.90;;
54261;SDS011;40174;52.364;6.452;2023-04-24T04:13:10;5.53;;;1.80;;
54261;SDS011;40174;52.364;6.452;2023-04-24T04:15:36;5.70;;;2.20;;
54261;SDS011;40174;52.364;6.452;2023-04-24T04:18:03;5.93;;;2.50;;
54261;SDS011;40174;52.364;6.452;2023-04-24T04:20:30;5.68;;;2.40;;
54261;SDS011;40174;52.364;6.452;2023-04-24T04:22:56;5.55;;;2.28;;
54261;SDS011;40174;52.364;6.452;2023-04-24T04:25:35;6.18;;;2.45;;
54261;SDS011;40174;52.364;6.452;2023-04-24T04:28:02;6.03;;;2.25;;
54261;SDS011;40174;52.364;6.452;2023-04-24T04:30:29;5.85;;;2.25;;
54261;SDS011;40174;52.364;6.452;2023-04-24T04:33:01;6.15;;;2.78;;
54261;SDS011;40174;52.364;6.452;2023-04-24T04:35:29;6.82;;;2.42;;
54261;SDS011;40174;52.364;6.452;2023-04-24T04:37:57;5.28;;;2.40;;
54261;SDS011;40174;52.364;6.452;2023-04-24T04:40:38;6.13;;;2.17;;
54261;SDS011;40174;52.364;6.452;2023-04-24T04:43:06;5.47;;;2.70;;
54261;SDS011;40174;52.364;6.452;2023-04-24T04:45:42;5.35;;;2.53;;
54261;SDS011;40174;52.364;6.452;2023-04-24T04:48:30;6.57;;;2.30;;
54261;SDS011;40174;52.364;6.452;2023-04-24T04:50:59;7.10;;;2.90;;
54261;SDS011;40174;52.364;6.452;2023-04-24T04:53:27;4.78;;;2.38;;
54261;SDS011;40174;52.364;6.452;2023-04-24T04:55:55;4.97;;;2.42;;
54261;SDS011;40174;52.364;6.452;2023-04-24T04:58:26;5.40;;;2.45;;
54261;SDS011;40174;52.364;6.452;2023-04-24T05:00:56;5.75;;;2.80;;
54261;SDS011;40174;52.364;6.452;2023-04-24T05:03:35;5.32;;;2.80;;
54261;SDS011;40174;52.364;6.452;2023-04-24T05:06:05;6.50;;;2.75;;
54261;SDS011;40174;52.364;6.452;2023-04-24T05:08:35;5.20;;;2.47;;
54261;SDS011;40174;52.364;6.452;2023-04-24T05:11:06;6.63;;;2.83;;
54261;SDS011;40174;52.364;6.452;2023-04-24T05:13:33;5.88;;;2.70;;
54261;SDS011;40174;52.364;6.452;2023-04-24T05:16:02;6.63;;;2.95;;
54261;SDS011;40174;52.364;6.452;2023-04-24T05:18:30;5.20;;;2.67;;
54261;SDS011;40174;52.364;6.452;2023-04-24T05:20:57;6.82;;;3.22;;
54261;SDS011;40174;52.364;6.452;2023-04-24T05:23:24;7.65;;;3.50;;
54261;SDS011;40174;52.364;6.452;2023-04-24T05:25:55;11.43;;;4.43;;
54261;SDS011;40174;52.364;6.452;2023-04-24T05:28:23;9.82;;;4.07;;
54261;SDS011;40174;52.364;6.452;2023-04-24T05:31:02;11.27;;;4.85;;
54261;SDS011;40174;52.364;6.452;2023-04-24T05:33:29;13.52;;;4.72;;
54261;SDS011;40174;52.364;6.452;2023-04-24T05:35:56;14.07;;;4.97;;
54261;SDS011;40174;52.364;6.452;2023-04-24T05:38:22;12.98;;;5.05;;
54261;SDS011;40174;52.364;6.452;2023-04-24T05:40:49;11.88;;;4.43;;
54261;SDS011;40174;52.364;6.452;2023-04-24T05:43:16;13.68;;;5.80;;
54261;SDS011;40174;52.364;6.452;2023-04-24T05:45:44;13.85;;;6.63;;
54261;SDS011;40174;52.364;6.452;2023-04-24T05:48:10;13.57;;;5.97;;
54261;SDS011;40174;52.364;6.452;2023-04-24T05:50:37;12.57;;;5.93;;
54261;SDS011;40174;52.364;6.452;2023-04-24T05:53:04;14.32;;;6.47;;
54261;SDS011;40174;52.364;6.452;2023-04-24T05:55:34;14.20;;;6.18;;
54261;SDS011;40174;52.364;6.452;2023-04-24T05:58:01;14.50;;;5.57;;
54261;SDS011;40174;52.364;6.452;2023-04-24T06:00:28;11.55;;;5.05;;
54261;SDS011;40174;52.364;6.452;2023-04-24T06:03:03;12.35;;;5.07;;
54261;SDS011;40174;52.364;6.452;2023-04-24T06:05:30;11.65;;;4.63;;
54261;SDS011;40174;52.364;6.452;2023-04-24T06:07:56;8.52;;;3.53;;
54261;SDS011;40174;52.364;6.452;2023-04-24T06:10:26;9.68;;;3.50;;
54261;SDS011;40174;52.364;6.452;2023-04-24T06:12:53;5.80;;;2.65;;
54261;SDS011;40174;52.364;6.452;2023-04-24T06:15:21;7.00;;;2.55;;
54261;SDS011;40174;52.364;6.452;2023-04-24T06:17:55;6.57;;;2.65;;
54261;SDS011;40174;52.364;6.452;2023-04-24T06:20:23;8.95;;;3.53;;
54261;SDS011;40174;52.364;6.452;2023-04-24T06:22:50;12.02;;;4.65;;
54261;SDS011;40174;52.364;6.452;2023-04-24T06:25:17;14.00;;;5.90;;
54261;SDS011;40174;52.364;6.452;2023-04-24T06:27:44;15.60;;;6.78;;
54261;SDS011;40174;52.364;6.452;2023-04-24T06:30:11;14.25;;;6.20;;
54261;SDS011;40174;52.364;6.452;2023-04-24T06:32:38;15.48;;;6.18;;
54261;SDS011;40174;52.364;6.452;2023-04-24T06:35:05;15.82;;;6.70;;
54261;SDS011;40174;52.364;6.452;2023-04-24T06:37:34;20.27;;;7.60;;
54261;SDS011;40174;52.364;6.452;2023-04-24T06:40:01;15.63;;;7.47;;
54261;SDS011;40174;52.364;6.452;2023-04-24T06:42:27;17.38;;;6.78;;
54261;SDS011;40174;52.364;6.452;2023-04-24T06:44:54;17.85;;;8.02;;
54261;SDS011;40174;52.364;6.452;2023-04-24T06:47:21;15.07;;;6.88;;
54261;SDS011;40174;52.364;6.452;2023-04-24T06:49:47;14.77;;;6.18;;
54261;SDS011;40174;52.364;6.452;2023-04-24T06:52:16;15.57;;;5.90;;
54261;SDS011;40174;52.364;6.452;2023-04-24T06:54:44;18.13;;;5.28;;
54261;SDS011;40174;52.364;6.452;2023-04-24T06:57:10;11.20;;;4.70;;
54261;SDS011;40174;52.364;6.452;2023-04-24T06:59:37;11.27;;;5.60;;
54261;SDS011;40174;52.364;6.452;2023-04-24T07:02:04;12.43;;;5.63;;
54261;SDS011;40174;52.364;6.452;2023-04-24T07:04:31;11.52;;;4.18;;
54261;SDS011;40174;52.364;6.452;2023-04-24T07:06:57;12.38;;;5.20;;
54261;SDS011;40174;52.364;6.452;2023-04-24T07:09:25;11.38;;;4.55;;
54261;SDS011;40174;52.364;6.452;2023-04-24T07:11:53;11.38;;;4.50;;
54261;SDS011;40174;52.364;6.452;2023-04-24T07:14:22;10.05;;;4.15;;
54261;SDS011;40174;52.364;6.452;2023-04-24T07:16:48;10.43;;;3.67;;
54261;SDS011;40174;52.364;6.452;2023-04-24T07:19:15;8.93;;;3.65;;
54261;SDS011;40174;52.364;6.452;2023-04-24T07:21:42;8.20;;;3.28;;
54261;SDS011;40174;52.364;6.452;2023-04-24T07:24:08;9.45;;;3.70;;
54261;SDS011;40174;52.364;6.452;2023-04-24T07:26:36;7.75;;;2.88;;
54261;SDS011;40174;52.364;6.452;2023-04-24T07:29:05;7.78;;;2.95;;
54261;SDS011;40174;52.364;6.452;2023-04-24T07:31:31;7.20;;;2.65;;
54261;SDS011;40174;52.364;6.452;2023-04-24T07:33:58;7.70;;;2.47;;
54261;SDS011;40174;52.364;6.452;2023-04-24T07:36:24;6.68;;;2.30;;
54261;SDS011;40174;52.364;6.452;2023-04-24T07:38:52;6.32;;;2.78;;
54261;SDS011;40174;52.364;6.452;2023-04-24T07:41:18;3.72;;;1.45;;
54261;SDS011;40174;52.364;6.452;2023-04-24T07:43:45;5.13;;;1.67;;
54261;SDS011;40174;52.364;6.452;2023-04-24T07:46:13;4.82;;;1.85;;
54261;SDS011;40174;52.364;6.452;2023-04-24T07:48:40;3.53;;;1.58;;
54261;SDS011;40174;52.364;6.452;2023-04-24T07:51:07;5.40;;;1.67;;
54261;SDS011;40174;52.364;6.452;2023-04-24T07:53:35;5.30;;;1.25;;
54261;SDS011;40174;52.364;6.452;2023-04-24T07:56:01;3.67;;;1.45;;
54261;SDS011;40174;52.364;6.452;2023-04-24T07:58:28;4.03;;;1.60;;
54261;SDS011;40174;52.364;6.452;2023-04-24T08:00:54;4.60;;;1.48;;
54261;SDS011;40174;52.364;6.452;2023-04-24T08:03:22;3.25;;;1.45;;
54261;SDS011;40174;52.364;6.452;2023-04-24T08:05:49;2.78;;;1.30;;
54261;SDS011;40174;52.364;6.452;2023-04-24T08:08:16;3.47;;;1.50;;
54261;SDS011;40174;52.364;6.452;2023-04-24T08:10:44;3.47;;;1.52;;
54261;SDS011;40174;52.364;6.452;2023-04-24T08:13:10;2.75;;;1.30;;
54261;SDS011;40174;52.364;6.452;2023-04-24T08:15:37;3.63;;;1.30;;
54261;SDS011;40174;52.364;6.452;2023-04-24T08:18:04;3.58;;;1.08;;
54261;SDS011;40174;52.364;6.452;2023-04-24T08:20:32;2.50;;;0.98;;
54261;SDS011;40174;52.364;6.452;2023-04-24T08:22:59;1.88;;;1.05;;
54261;SDS011;40174;52.364;6.452;2023-04-24T08:25:26;1.00;;;0.70;;
54261;SDS011;40174;52.364;6.452;2023-04-24T08:27:52;2.22;;;0.82;;
54261;SDS011;40174;52.364;6.452;2023-04-24T08:30:19;2.13;;;0.70;;
54261;SDS011;40174;52.364;6.452;2023-04-24T08:32:46;1.50;;;1.00;;
54261;SDS011;40174;52.364;6.452;2023-04-24T08:35:13;1.20;;;0.80;;
54261;SDS011;40174;52.364;6.452;2023-04-24T08:37:41;3.40;;;1.00;;
54261;SDS011;40174;52.364;6.452;2023-04-24T08:40:11;3.97;;;1.77;;
54261;SDS011;40174;52.364;6.452;2023-04-24T08:42:41;6.30;;;2.17;;
54261;SDS011;40174;52.364;6.452;2023-04-24T08:45:08;7.05;;;3.00;;
54261;SDS011;40174;52.364;6.452;2023-04-24T08:47:37;6.00;;;2.60;;
54261;SDS011;40174;52.364;6.452;2023-04-24T08:50:04;8.27;;;3.30;;
54261;SDS011;40174;52.364;6.452;2023-04-24T08:52:32;10.23;;;3.53;;
54261;SDS011;40174;52.364;6.452;2023-04-24T08:55:01;9.90;;;3.95;;
54261;SDS011;40174;52.364;6.452;2023-04-24T08:57:27;10.95;;;4.28;;
54261;SDS011;40174;52.364;6.452;2023-04-24T08:59:55;9.88;;;4.10;;
54261;SDS011;40174;52.364;6.452;2023-04-24T09:02:22;11.80;;;4.85;;
54261;SDS011;40174;52.364;6.452;2023-04-24T09:04:49;89.70;;;7.05;;
54261;SDS011;40174;52.364;6.452;2023-04-24T09:07:18;11.85;;;4.72;;
54261;SDS011;40174;52.364;6.452;2023-04-24T09:09:48;10.35;;;4.60;;
54261;SDS011;40174;52.364;6.452;2023-04-24T09:12:18;12.00;;;4.35;;
54261;SDS011;40174;52.364;6.452;2023-04-24T09:14:45;10.48;;;4.75;;
54261;SDS011;40174;52.364;6.452;2023-04-24T09:17:11;9.48;;;4.38;;
54261;SDS011;40174;52.364;6.452;2023-04-24T09:19:38;14.60;;;5.05;;
54261;SDS011;40174;52.364;6.452;2023-04-24T09:22:04;12.50;;;5.10;;
54261;SDS011;40174;52.364;6.452;2023-04-24T09:24:33;16.83;;;5.40;;
54261;SDS011;40174;52.364;6.452;2023-04-24T09:27:00;13.63;;;5.68;;
54261;SDS011;40174;52.364;6.452;2023-04-24T09:29:28;11.82;;;6.18;;
54261;SDS011;40174;52.364;6.452;2023-04-24T09:31:56;15.20;;;5.80;;
54261;SDS011;40174;52.364;6.452;2023-04-24T09:34:23;17.13;;;5.53;;
54261;SDS011;40174;52.364;6.452;2023-04-24T09:36:51;13.70;;;5.78;;
54261;SDS011;40174;52.364;6.452;2023-04-24T09:39:18;16.02;;;5.63;;
54261;SDS011;40174;52.364;6.452;2023-04-24T09:41:46;15.13;;;5.60;;
54261;SDS011;40174;52.364;6.452;2023-04-24T09:44:14;14.48;;;5.22;;
54261;SDS011;40174;52.364;6.452;2023-04-24T09:46:44;13.98;;;5.03;;
54261;SDS011;40174;52.364;6.452;2023-04-24T09:49:14;13.23;;;5.10;;
54261;SDS011;40174;52.364;6.452;2023-04-24T09:51:42;11.60;;;4.40;;
54261;SDS011;40174;52.364;6.452;2023-04-24T09:54:15;15.57;;;4.68;;
54261;SDS011;40174;52.364;6.452;2023-04-24T09:56:43;13.05;;;4.45;;
54261;SDS011;40174;52.364;6.452;2023-04-24T09:59:11;12.45;;;4.47;;
54261;SDS011;40174;52.364;6.452;2023-04-24T10:01:38;11.60;;;3.67;;
54261;SDS011;40174;52.364;6.452;2023-04-24T10:04:15;13.43;;;4.72;;
54261;SDS011;40174;52.364;6.452;2023-04-24T10:06:43;12.45;;;4.50;;
54261;SDS011;40174;52.364;6.452;2023-04-24T10:09:10;11.45;;;4.20;;
54261;SDS011;40174;52.364;6.452;2023-04-24T10:11:40;10.93;;;4.32;;
54261;SDS011;40174;52.364;6.452;2023-04-24T10:14:09;9.43;;;3.40;;
54261;SDS011;40174;52.364;6.452;2023-04-24T10:16:37;10.18;;;3.60;;
54261;SDS011;40174;52.364;6.452;2023-04-24T10:19:04;9.15;;;3.75;;
54261;SDS011;40174;52.364;6.452;2023-04-24T10:21:32;13.35;;;3.28;;
54261;SDS011;40174;52.364;6.452;2023-04-24T10:24:00;7.65;;;2.72;;
54261;SDS011;40174;52.364;6.452;2023-04-24T10:26:28;9.60;;;2.83;;
54261;SDS011;40174;52.364;6.452;2023-04-24T10:28:56;7.90;;;2.60;;
54261;SDS011;40174;52.364;6.452;2023-04-24T10:31:23;7.22;;;2.67;;
54261;SDS011;40174;52.364;6.452;2023-04-24T10:33:51;7.07;;;2.38;;
54261;SDS011;40174;52.364;6.452;2023-04-24T10:36:19;8.65;;;2.53;;
54261;SDS011;40174;52.364;6.452;2023-04-24T10:38:51;9.55;;;2.90;;
54261;SDS011;40174;52.364;6.452;2023-04-24T10:41:20;12.35;;;2.67;;
54261;SDS011;40174;52.364;6.452;2023-04-24T10:43:48;9.00;;;2.10;;
54261;SDS011;40174;52.364;6.452;2023-04-24T10:46:16;5.28;;;2.67;;
54261;SDS011;40174;52.364;6.452;2023-04-24T10:48:52;7.03;;;2.15;;
54261;SDS011;40174;52.364;6.452;2023-04-24T10:51:21;4.88;;;2.15;;
54261;SDS011;40174;52.364;6.452;2023-04-24T10:53:50;12.07;;;2.60;;
54261;SDS011;40174;52.364;6.452;2023-04-24T10:56:17;5.95;;;2.70;;
54261;SDS011;40174;52.364;6.452;2023-04-24T10:58:44;10.45;;;2.42;;
54261;SDS011;40174;52.364;6.452;2023-04-24T11:01:22;12.27;;;2.35;;
54261;SDS011;40174;52.364;6.452;2023-04-24T11:03:54;7.50;;;1.83;;
54261;SDS011;40174;52.364;6.452;2023-04-24T11:06:28;12.75;;;2.17;;
54261;SDS011;40174;52.364;6.452;2023-04-24T11:09:01;11.75;;;3.15;;
54261;SDS011;40174;52.364;6.452;2023-04-24T11:11:30;7.93;;;2.05;;
54261;SDS011;40174;52.364;6.452;2023-04-24T11:14:04;8.52;;;2.22;;
54261;SDS011;40174;52.364;6.452;2023-04-24T11:16:36;11.75;;;2.17;;
54261;SDS011;40174;52.364;6.452;2023-04-24T11:19:06;11.00;;;1.90;;
54261;SDS011;40174;52.364;6.452;2023-04-24T11:21:40;8.02;;;1.98;;
54261;SDS011;40174;52.364;6.452;2023-04-24T11:24:31;5.63;;;1.60;;
54261;SDS011;40174;52.364;6.452;2023-04-24T11:27:06;6.00;;;1.60;;
54261;SDS011;40174;52.364;6.452;2023-04-24T11:29:39;8.52;;;1.60;;
54261;SDS011;40174;52.364;6.452;2023-04-24T11:32:14;8.30;;;1.90;;
54261;SDS011;40174;52.364;6.452;2023-04-24T11:34:45;8.55;;;1.88;;
54261;SDS011;40174;52.364;6.452;2023-04-24T11:37:12;7.95;;;1.38;;
54261;SDS011;40174;52.364;6.452;2023-04-24T11:39:40;4.43;;;1.70;;
54261;SDS011;40174;52.364;6.452;2023-04-24T11:42:07;5.60;;;1.60;;
54261;SDS011;40174;52.364;6.452;2023-04-24T11:44:35;9.90;;;1.73;;
54261;SDS011;40174;52.364;6.452;2023-04-24T11:47:03;5.13;;;1.63;;
54261;SDS011;40174;52.364;6.452;2023-04-24T11:49:29;3.80;;;1.40;;
54261;SDS011;40174;52.364;6.452;2023-04-24T11:51:56;5.05;;;1.40;;
54261;SDS011;40174;52.364;6.452;2023-04-24T11:54:23;3.40;;;1.52;;
54261;SDS011;40174;52.364;6.452;2023-04-24T11:56:50;5.35;;;1.50;;
54261;SDS011;40174;52.364;6.452;2023-04-24T11:59:17;5.72;;;1.40;;
54261;SDS011;40174;52.364;6.452;2023-04-24T12:01:44;8.13;;;1.88;;
54261;SDS011;40174;52.364;6.452;2023-04-24T12:04:11;10.05;;;1.92;;
54261;SDS011;40174;52.364;6.452;2023-04-24T12:06:38;8.52;;;1.63;;
54261;SDS011;40174;52.364;6.452;2023-04-24T12:09:05;5.07;;;1.10;;
54261;SDS011;40174;52.364;6.452;2023-04-24T12:11:31;3.92;;;1.20;;
54261;SDS011;40174;52.364;6.452;2023-04-24T12:14:10;4.13;;;1.33;;
54261;SDS011;40174;52.364;6.452;2023-04-24T12:16:36;7.47;;;1.40;;
54261;SDS011;40174;52.364;6.452;2023-04-24T12:19:04;1.95;;;1.23;;
54261;SDS011;40174;52.364;6.452;2023-04-24T12:21:31;5.47;;;1.05;;
54261;SDS011;40174;52.364;6.452;2023-04-24T12:23:57;5.10;;;1.10;;
54261;SDS011;40174;52.364;6.452;2023-04-24T12:26:24;7.25;;;1.00;;
54261;SDS011;40174;52.364;6.452;2023-04-24T12:28:51;4.75;;;0.98;;
54261;SDS011;40174;52.364;6.452;2023-04-24T12:31:19;4.88;;;1.65;;
54261;SDS011;40174;52.364;6.452;2023-04-24T12:33:47;3.22;;;0.90;;
54261;SDS011;40174;52.364;6.452;2023-04-24T12:36:13;3.53;;;1.00;;
54261;SDS011;40174;52.364;6.452;2023-04-24T12:38:42;3.33;;;1.05;;
54261;SDS011;40174;52.364;6.452;2023-04-24T12:41:11;4.63;;;1.00;;
54261;SDS011;40174;52.364;6.452;2023-04-24T12:43:50;2.20;;;0.70;;
54261;SDS011;40174;52.364;6.452;2023-04-24T12:46:18;2.00;;;0.80;;
54261;SDS011;40174;52.364;6.452;2023-04-24T12:48:45;2.55;;;0.98;;
54261;SDS011;40174;52.364;6.452;2023-04-24T12:51:11;2.50;;;0.90;;
54261;SDS011;40174;52.364;6.452;2023-04-24T12:53:38;6.38;;;0.85;;
54261;SDS011;40174;52.364;6.452;2023-04-24T12:56:05;3.70;;;0.90;;
54261;SDS011;40174;52.364;6.452;2023-04-24T12:58:31;3.53;;;0.85;;
54261;SDS011;40174;52.364;6.452;2023-04-24T13:00:58;5.18;;;0.88;;
54261;SDS011;40174;52.364;6.452;2023-04-24T13:03:27;6.43;;;0.80;;
54261;SDS011;40174;52.364;6.452;2023-04-24T13:05:54;5.47;;;0.88;;
54261;SDS011;40174;52.364;6.452;2023-04-24T13:08:20;2.55;;;0.55;;
54261;SDS011;40174;52.364;6.452;2023-04-24T13:10:47;3.42;;;0.95;;
54261;SDS011;40174;52.364;6.452;2023-04-24T13:13:14;5.03;;;0.80;;
54261;SDS011;40174;52.364;6.452;2023-04-24T13:15:41;2.00;;;0.63;;
54261;SDS011;40174;52.364;6.452;2023-04-24T13:18:07;2.60;;;0.60;;
54261;SDS011;40174;52.364;6.452;2023-04-24T13:20:35;3.65;;;0.90;;
54261;SDS011;40174;52.364;6.452;2023-04-24T13:23:02;1.65;;;0.82;;
54261;SDS011;40174;52.364;6.452;2023-04-24T13:25:30;5.05;;;0.73;;
54261;SDS011;40174;52.364;6.452;2023-04-24T13:28:00;2.88;;;0.57;;
54261;SDS011;40174;52.364;6.452;2023-04-24T13:30:27;2.70;;;0.47;;
54261;SDS011;40174;52.364;6.452;2023-04-24T13:32:54;1.52;;;0.60;;
54261;SDS011;40174;52.364;6.452;2023-04-24T13:35:20;1.60;;;0.60;;
54261;SDS011;40174;52.364;6.452;2023-04-24T13:37:48;1.48;;;0.63;;
54261;SDS011;40174;52.364;6.452;2023-04-24T13:40:15;1.23;;;0.30;;
54261;SDS011;40174;52.364;6.452;2023-04-24T13:42:41;1.42;;;0.60;;
54261;SDS011;40174;52.364;6.452;2023-04-24T13:45:09;3.13;;;0.57;;
54261;SDS011;40174;52.364;6.452;2023-04-24T13:47:36;2.13;;;0.50;;
54261;SDS011;40174;52.364;6.452;2023-04-24T13:50:06;6.75;;;0.73;;
54261;SDS011;40174;52.364;6.452;2023-04-24T13:52:33;4.13;;;0.52;;
54261;SDS011;40174;52.364;6.452;2023-04-24T13:55:01;4.88;;;0.60;;
54261;SDS011;40174;52.364;6.452;2023-04-24T13:57:28;1.88;;;0.70;;
54261;SDS011;40174;52.364;6.452;2023-04-24T13:59:55;3.78;;;0.80;;
54261;SDS011;40174;52.364;6.452;2023-04-24T14:02:26;4.03;;;0.63;;
54261;SDS011;40174;52.364;6.452;2023-04-24T14:04:53;3.47;;;0.60;;
54261;SDS011;40174;52.364;6.452;2023-04-24T14:07:19;2.80;;;0.90;;
54261;SDS011;40174;52.364;6.452;2023-04-24T14:09:46;2.17;;;0.70;;
54261;SDS011;40174;52.364;6.452;2023-04-24T14:12:14;5.28;;;0.60;;
54261;SDS011;40174;52.364;6.452;2023-04-24T14:14:42;3.28;;;0.45;;
54261;SDS011;40174;52.364;6.452;2023-04-24T14:17:09;4.10;;;0.80;;
54261;SDS011;40174;52.364;6.452;2023-04-24T14:19:36;3.72;;;0.80;;
54261;SDS011;40174;52.364;6.452;2023-04-24T14:22:02;4.50;;;0.80;;
54261;SDS011;40174;52.364;6.452;2023-04-24T14:24:29;4.10;;;0.73;;
54261;SDS011;40174;52.364;6.452;2023-04-24T14:26:55;4.05;;;0.95;;
54261;SDS011;40174;52.364;6.452;2023-04-24T14:29:23;5.47;;;1.05;;
54261;SDS011;40174;52.364;6.452;2023-04-24T14:31:51;3.38;;;0.95;;
54261;SDS011;40174;52.364;6.452;2023-04-24T14:34:17;4.47;;;0.85;;
54261;SDS011;40174;52.364;6.452;2023-04-24T14:36:44;3.92;;;0.90;;
54261;SDS011;40174;52.364;6.452;2023-04-24T14:39:11;4.85;;;1.10;;
54261;SDS011;40174;52.364;6.452;2023-04-24T14:41:37;5.85;;;1.45;;
54261;SDS011;40174;52.364;6.452;2023-04-24T14:44:04;9.70;;;1.10;;
54261;SDS011;40174;52.364;6.452;2023-04-24T14:46:32;5.20;;;1.10;;
54261;SDS011;40174;52.364;6.452;2023-04-24T14:48:59;9.48;;;1.27;;
54261;SDS011;40174;52.364;6.452;2023-04-24T14:51:26;6.45;;;1.15;;
54261;SDS011;40174;52.364;6.452;2023-04-24T14:53:53;8.93;;;1.00;;